Satumimaru — JD3925 — position and weather

sailwx.info

Track history (hours):
 
Tides and Currents Weather Stations Pressure Air Temp Water Temp Dewpoint Dewpoint Depression Visibility Wind Speed Wind Dir Waves Ship Positions

Satumimaru

Last reported at 2018-Apr-26 03:30 UTC. Time now 2018-Apr-26 03:42 UTC.
Position N 35°30' E 139°49'.

Length 82 m; draft 5.4 m.

Type: Cargo ship. MMSI: 431007046.

Date/timePositionNaut miles runAvg speedWind from/ knotsBaromVisibWave heightAir tempDewpointWater temp
2018-Apr-26 03:30N 35°30' E 139°49'510.8
2018-Apr-26 03:00N 35°25' E 139°47'611.8
2018-Apr-26 02:30N 35°19' E 139°44'611.2
2018-Apr-26 02:00N 35°14' E 139°47'611.2
2018-Apr-26 01:30N 35°09' E 139°46'510.6
2018-Apr-26 01:00N 35°04' E 139°42'510.8
2018-Apr-26 00:30N 35°01' E 139°38'611.1
2018-Apr-25 23:59N 34°57' E 139°32'912.8
2018-Apr-25 23:18N 34°52' E 139°24'513.6
2018-Apr-25 22:54N 34°49' E 139°18'513.1
2018-Apr-25 22:30N 34°46' E 139°13'713.3
2018-Apr-25 22:00N 34°42' E 139°06'712.0
2018-Apr-25 21:24N 34°37' E 138°59'512.8
2018-Apr-25 20:59N 34°35' E 138°54'612.1
2018-Apr-25 20:28N 34°34' E 138°46'611.5
2018-Apr-25 19:58N 34°34' E 138°39'611.2
2018-Apr-25 19:23N 34°33' E 138°31'711.2
2018-Apr-25 18:46N 34°32' E 138°23'311.2
2018-Apr-25 18:28N 34°32' E 138°19'811.8
2018-Apr-25 17:48N 34°31' E 138°09'3611.5
2018-Apr-25 14:39N 34°30' E 137°26'911.0
2018-Apr-25 13:48N 34°29' E 137°14'114 8.3
2018-Apr-25 00:05N 33°49' E 135°06'111.5
2018-Apr-24 23:59N 33°49' E 135°05'511.0
2018-Apr-24 23:30N 33°54' E 135°02'511.1
2018-Apr-24 23:00N 33°60' E 135°02'511.0
2018-Apr-24 22:30N 34°05' E 135°03'510.9
2018-Apr-24 22:00N 34°11' E 135°03'510.6
2018-Apr-24 21:30N 34°16' E 135°03'611.1
2018-Apr-24 21:00N 34°21' E 135°04'510.7
2018-Apr-24 20:30N 34°27' E 135°04'510.3
2018-Apr-24 20:00N 34°32' E 135°03'4 8.7
2018-Apr-24 19:31N 34°36' E 135°02'4 7.2
2018-Apr-24 19:00N 34°36' E 134°58'5 9.1
2018-Apr-24 18:30N 34°34' E 134°53'510.0
2018-Apr-24 18:01N 34°32' E 134°47'510.9
2018-Apr-24 17:30N 34°30' E 134°41'611.3
2018-Apr-24 17:00N 34°28' E 134°35'611.3
2018-Apr-24 16:30N 34°26' E 134°28'8810.4
2018-Apr-24 08:03N 34°01' E 132°46'011.8
2018-Apr-24 08:00N 34°01' E 132°46'611.7
2018-Apr-24 07:30N 33°56' E 132°41'611.7
2018-Apr-24 07:00N 33°52' E 132°36'911.8
2018-Apr-24 06:15N 33°46' E 132°28'411.9
2018-Apr-24 05:53N 33°43' E 132°25'2312.0
2018-Apr-24 03:58N 33°26' E 132°06'612.1
2018-Apr-24 03:30N 33°22' E 132°01'15 0.3
2018-Apr-22 02:31N 33°07' E 132°02'0 9.8
2018-Apr-22 02:30N 33°07' E 132°02'0 0.1
2018-Apr-21 22:52N 33°07' E 132°02'6 0.2
2018-Apr-20 08:21N 33°13' E 131°58'811.9
2018-Apr-20 07:42N 33°17' E 131°50'312.3
2018-Apr-20 07:29N 33°17' E 131°47'611.4
2018-Apr-20 06:59N 33°17' E 131°40'3 0.9
2018-Apr-20 03:31N 33°16' E 131°37'0 2.6
2018-Apr-20 03:21N 33°16' E 131°36'1 0.4
2018-Apr-20 00:34N 33°15' E 131°36'0 0.1
2018-Apr-20 00:28N 33°15' E 131°36'0 0.0
2018-Apr-19 23:58N 33°15' E 131°36'0 0.0
2018-Apr-19 23:28N 33°15' E 131°36'0 0.0
2018-Apr-19 22:58N 33°15' E 131°36'0 0.0
2018-Apr-19 22:28N 33°15' E 131°36'0 0.0
2018-Apr-19 21:52N 33°15' E 131°36'0 0.0
2018-Apr-19 21:10N 33°15' E 131°36'0 0.0
2018-Apr-19 20:46N 33°15' E 131°36'0 0.0
2018-Apr-19 20:28N 33°15' E 131°36'0 0.0
2018-Apr-19 19:52N 33°15' E 131°36'0 0.0
2018-Apr-19 18:58N 33°15' E 131°36'0 0.0
2018-Apr-19 18:28N 33°15' E 131°36'0 0.0
2018-Apr-19 17:52N 33°15' E 131°36'6 0.4
2018-Apr-19 03:11N 33°20' E 131°39'312.8
2018-Apr-19 02:58N 33°22' E 131°41'1312.3
2018-Apr-19 01:56N 33°35' E 131°45'512.7
2018-Apr-19 01:30N 33°39' E 131°42'611.9
2018-Apr-19 01:00N 33°42' E 131°36'611.7
2018-Apr-19 00:30N 33°42' E 131°29'612.0
2018-Apr-19 00:00N 33°40' E 131°22'510.8
2018-Apr-18 23:31N 33°39' E 131°16'0 0.1
2018-Apr-18 23:00N 33°39' E 131°16'0 0.0
2018-Apr-18 22:30N 33°39' E 131°16'0 0.0
2018-Apr-18 21:57N 33°39' E 131°16'0 0.0
2018-Apr-18 21:30N 33°39' E 131°16'0 0.0
2018-Apr-18 21:00N 33°39' E 131°16'0 0.1
2018-Apr-18 20:30N 33°39' E 131°16'0 0.0
2018-Apr-18 20:00N 33°39' E 131°16'0 0.1
2018-Apr-18 19:30N 33°39' E 131°16'0 0.0
2018-Apr-18 18:57N 33°39' E 131°16'0 0.0
2018-Apr-18 18:27N 33°39' E 131°16'0 0.0
2018-Apr-18 17:57N 33°39' E 131°16'0 0.0
2018-Apr-18 17:27N 33°39' E 131°16'0 0.0
2018-Apr-18 16:57N 33°39' E 131°16'0 0.0
2018-Apr-18 16:21N 33°39' E 131°16'2 5.8
2018-Apr-18 16:00N 33°37' E 131°15'0 0.4
2018-Apr-18 15:07N 33°37' E 131°15'0 0.0
2018-Apr-18 12:09N 33°37' E 131°15'0 0.0
2018-Apr-18 11:54N 33°37' E 131°15'2 4.6
2018-Apr-18 11:30N 33°38' E 131°16'5 9.3
2018-Apr-18 11:00N 33°40' E 131°21'611.7
2018-Apr-18 10:28N 33°42' E 131°28'512.0
2018-Apr-18 10:01N 33°43' E 131°35'712.9
2018-Apr-18 09:30N 33°40' E 131°42'612.5
2018-Apr-18 09:00N 33°35' E 131°46'612.2
2018-Apr-18 08:30N 33°29' E 131°48'610.8
2018-Apr-18 07:56N 33°23' E 131°51'19 1.1
2018-Apr-17 14:35N 33°34' E 132°10'213.0
2018-Apr-17 14:27N 33°35' E 132°11'612.5
2018-Apr-17 14:00N 33°39' E 132°16'612.1
2018-Apr-17 13:30N 33°43' E 132°22'611.7
2018-Apr-17 13:00N 33°47' E 132°27'611.8
2018-Apr-17 12:29N 33°51' E 132°33'511.0
2018-Apr-17 12:00N 33°54' E 132°37'510.1
2018-Apr-17 11:30N 33°57' E 132°42'7411.3
2018-Apr-17 04:58N 34°27' E 134°04'610.8
2018-Apr-17 04:24N 34°32' E 134°09'611.2
2018-Apr-17 03:54N 34°35' E 134°14'512.1
2018-Apr-17 03:30N 34°37' E 134°20'612.4
2018-Apr-17 03:00N 34°40' E 134°26'612.6
2018-Apr-17 02:30N 34°43' E 134°33'5 6.0
2018-Apr-17 01:41N 34°46' E 134°38'0 0.0
2018-Apr-17 01:23N 34°46' E 134°38'0 0.0
2018-Apr-17 00:47N 34°46' E 134°38'0 0.0
2018-Apr-17 00:29N 34°46' E 134°38'0 0.0
2018-Apr-16 23:35N 34°46' E 134°38'0 0.0
2018-Apr-16 23:23N 34°46' E 134°38'0 0.0
2018-Apr-16 21:17N 34°46' E 134°38'0 0.0
2018-Apr-16 20:47N 34°46' E 134°38'0 0.1
2018-Apr-16 20:24N 34°46' E 134°38'1 0.5
2018-Apr-16 17:59N 34°47' E 134°38'0 0.0
2018-Apr-16 07:27N 34°47' E 134°38'2 4.0
2018-Apr-16 07:00N 34°45' E 134°39'5 9.8
2018-Apr-16 06:30N 34°43' E 134°44'510.0
2018-Apr-16 06:01N 34°40' E 134°49'5 9.0
2018-Apr-16 05:30N 34°38' E 134°54'5 9.3
2018-Apr-16 05:00N 34°38' E 134°59'3 6.7
2018-Apr-16 04:30N 34°36' E 135°03'4 8.1
2018-Apr-16 04:00N 34°33' E 135°05'  
Track history (hours):
 
Tides and Currents Weather Stations Pressure Air Temp Water Temp Dewpoint Dewpoint Depression Visibility Wind Speed Wind Dir Waves Ship Positions

Satumimaru

Last reported at 2018-Apr-26 03:30 UTC. Time now 2018-Apr-26 03:42 UTC.
Position N 35°30' E 139°49'.

Length 82 m; draft 5.4 m.

Type: Cargo ship. MMSI: 431007046.

Date/timePositionNaut miles runAvg speedWind from/ knotsBaromVisibWave heightAir tempDewpointWater temp
2018-Apr-26 03:30N 35°30' E 139°49'510.8
2018-Apr-26 03:00N 35°25' E 139°47'611.8
2018-Apr-26 02:30N 35°19' E 139°44'611.2
2018-Apr-26 02:00N 35°14' E 139°47'611.2
2018-Apr-26 01:30N 35°09' E 139°46'510.6
2018-Apr-26 01:00N 35°04' E 139°42'510.8
2018-Apr-26 00:30N 35°01' E 139°38'611.1
2018-Apr-25 23:59N 34°57' E 139°32'912.8
2018-Apr-25 23:18N 34°52' E 139°24'513.6
2018-Apr-25 22:54N 34°49' E 139°18'513.1
2018-Apr-25 22:30N 34°46' E 139°13'713.3
2018-Apr-25 22:00N 34°42' E 139°06'712.0
2018-Apr-25 21:24N 34°37' E 138°59'512.8
2018-Apr-25 20:59N 34°35' E 138°54'612.1
2018-Apr-25 20:28N 34°34' E 138°46'611.5
2018-Apr-25 19:58N 34°34' E 138°39'611.2
2018-Apr-25 19:23N 34°33' E 138°31'711.2
2018-Apr-25 18:46N 34°32' E 138°23'311.2
2018-Apr-25 18:28N 34°32' E 138°19'811.8
2018-Apr-25 17:48N 34°31' E 138°09'3611.5
2018-Apr-25 14:39N 34°30' E 137°26'911.0
2018-Apr-25 13:48N 34°29' E 137°14'114 8.3
2018-Apr-25 00:05N 33°49' E 135°06'111.5
2018-Apr-24 23:59N 33°49' E 135°05'511.0
2018-Apr-24 23:30N 33°54' E 135°02'511.1
2018-Apr-24 23:00N 33°60' E 135°02'511.0
2018-Apr-24 22:30N 34°05' E 135°03'510.9
2018-Apr-24 22:00N 34°11' E 135°03'510.6
2018-Apr-24 21:30N 34°16' E 135°03'611.1
2018-Apr-24 21:00N 34°21' E 135°04'510.7
2018-Apr-24 20:30N 34°27' E 135°04'510.3
2018-Apr-24 20:00N 34°32' E 135°03'4 8.7
2018-Apr-24 19:31N 34°36' E 135°02'4 7.2
2018-Apr-24 19:00N 34°36' E 134°58'5 9.1
2018-Apr-24 18:30N 34°34' E 134°53'510.0
2018-Apr-24 18:01N 34°32' E 134°47'510.9
2018-Apr-24 17:30N 34°30' E 134°41'611.3
2018-Apr-24 17:00N 34°28' E 134°35'611.3
2018-Apr-24 16:30N 34°26' E 134°28'8810.4
2018-Apr-24 08:03N 34°01' E 132°46'011.8
2018-Apr-24 08:00N 34°01' E 132°46'611.7
2018-Apr-24 07:30N 33°56' E 132°41'611.7
2018-Apr-24 07:00N 33°52' E 132°36'911.8
2018-Apr-24 06:15N 33°46' E 132°28'411.9
2018-Apr-24 05:53N 33°43' E 132°25'2312.0
2018-Apr-24 03:58N 33°26' E 132°06'612.1
2018-Apr-24 03:30N 33°22' E 132°01'15 0.3
2018-Apr-22 02:31N 33°07' E 132°02'0 9.8
2018-Apr-22 02:30N 33°07' E 132°02'0 0.1
2018-Apr-21 22:52N 33°07' E 132°02'6 0.2
2018-Apr-20 08:21N 33°13' E 131°58'811.9
2018-Apr-20 07:42N 33°17' E 131°50'312.3
2018-Apr-20 07:29N 33°17' E 131°47'611.4
2018-Apr-20 06:59N 33°17' E 131°40'3 0.9
2018-Apr-20 03:31N 33°16' E 131°37'0 2.6
2018-Apr-20 03:21N 33°16' E 131°36'1 0.4
2018-Apr-20 00:34N 33°15' E 131°36'0 0.1
2018-Apr-20 00:28N 33°15' E 131°36'0 0.0
2018-Apr-19 23:58N 33°15' E 131°36'0 0.0
2018-Apr-19 23:28N 33°15' E 131°36'0 0.0
2018-Apr-19 22:58N 33°15' E 131°36'0 0.0
2018-Apr-19 22:28N 33°15' E 131°36'0 0.0
2018-Apr-19 21:52N 33°15' E 131°36'0 0.0
2018-Apr-19 21:10N 33°15' E 131°36'0 0.0
2018-Apr-19 20:46N 33°15' E 131°36'0 0.0
2018-Apr-19 20:28N 33°15' E 131°36'0 0.0
2018-Apr-19 19:52N 33°15' E 131°36'0 0.0
2018-Apr-19 18:58N 33°15' E 131°36'0 0.0
2018-Apr-19 18:28N 33°15' E 131°36'0 0.0
2018-Apr-19 17:52N 33°15' E 131°36'6 0.4
2018-Apr-19 03:11N 33°20' E 131°39'312.8
2018-Apr-19 02:58N 33°22' E 131°41'1312.3
2018-Apr-19 01:56N 33°35' E 131°45'512.7
2018-Apr-19 01:30N 33°39' E 131°42'611.9
2018-Apr-19 01:00N 33°42' E 131°36'611.7
2018-Apr-19 00:30N 33°42' E 131°29'612.0
2018-Apr-19 00:00N 33°40' E 131°22'510.8
2018-Apr-18 23:31N 33°39' E 131°16'0 0.1
2018-Apr-18 23:00N 33°39' E 131°16'0 0.0
2018-Apr-18 22:30N 33°39' E 131°16'0 0.0
2018-Apr-18 21:57N 33°39' E 131°16'0 0.0
2018-Apr-18 21:30N 33°39' E 131°16'0 0.0
2018-Apr-18 21:00N 33°39' E 131°16'0 0.1
2018-Apr-18 20:30N 33°39' E 131°16'0 0.0
2018-Apr-18 20:00N 33°39' E 131°16'0 0.1
2018-Apr-18 19:30N 33°39' E 131°16'0 0.0
2018-Apr-18 18:57N 33°39' E 131°16'0 0.0
2018-Apr-18 18:27N 33°39' E 131°16'0 0.0
2018-Apr-18 17:57N 33°39' E 131°16'0 0.0
2018-Apr-18 17:27N 33°39' E 131°16'0 0.0
2018-Apr-18 16:57N 33°39' E 131°16'0 0.0
2018-Apr-18 16:21N 33°39' E 131°16'2 5.8
2018-Apr-18 16:00N 33°37' E 131°15'0 0.4
2018-Apr-18 15:07N 33°37' E 131°15'0 0.0
2018-Apr-18 12:09N 33°37' E 131°15'0 0.0
2018-Apr-18 11:54N 33°37' E 131°15'2 4.6
2018-Apr-18 11:30N 33°38' E 131°16'5 9.3
2018-Apr-18 11:00N 33°40' E 131°21'611.7
2018-Apr-18 10:28N 33°42' E 131°28'512.0
2018-Apr-18 10:01N 33°43' E 131°35'712.9
2018-Apr-18 09:30N 33°40' E 131°42'612.5
2018-Apr-18 09:00N 33°35' E 131°46'612.2
2018-Apr-18 08:30N 33°29' E 131°48'610.8
2018-Apr-18 07:56N 33°23' E 131°51'19 1.1
2018-Apr-17 14:35N 33°34' E 132°10'213.0
2018-Apr-17 14:27N 33°35' E 132°11'612.5
2018-Apr-17 14:00N 33°39' E 132°16'612.1
2018-Apr-17 13:30N 33°43' E 132°22'611.7
2018-Apr-17 13:00N 33°47' E 132°27'611.8
2018-Apr-17 12:29N 33°51' E 132°33'511.0
2018-Apr-17 12:00N 33°54' E 132°37'510.1
2018-Apr-17 11:30N 33°57' E 132°42'7411.3
2018-Apr-17 04:58N 34°27' E 134°04'610.8
2018-Apr-17 04:24N 34°32' E 134°09'611.2
2018-Apr-17 03:54N 34°35' E 134°14'512.1
2018-Apr-17 03:30N 34°37' E 134°20'612.4
2018-Apr-17 03:00N 34°40' E 134°26'612.6
2018-Apr-17 02:30N 34°43' E 134°33'5 6.0
2018-Apr-17 01:41N 34°46' E 134°38'0 0.0
2018-Apr-17 01:23N 34°46' E 134°38'0 0.0
2018-Apr-17 00:47N 34°46' E 134°38'0 0.0
2018-Apr-17 00:29N 34°46' E 134°38'0 0.0
2018-Apr-16 23:35N 34°46' E 134°38'0 0.0
2018-Apr-16 23:23N 34°46' E 134°38'0 0.0
2018-Apr-16 21:17N 34°46' E 134°38'0 0.0
2018-Apr-16 20:47N 34°46' E 134°38'0 0.1
2018-Apr-16 20:24N 34°46' E 134°38'1 0.5
2018-Apr-16 17:59N 34°47' E 134°38'0 0.0
2018-Apr-16 07:27N 34°47' E 134°38'2 4.0
2018-Apr-16 07:00N 34°45' E 134°39'5 9.8
2018-Apr-16 06:30N 34°43' E 134°44'510.0
2018-Apr-16 06:01N 34°40' E 134°49'5 9.0
2018-Apr-16 05:30N 34°38' E 134°54'5 9.3
2018-Apr-16 05:00N 34°38' E 134°59'3 6.7
2018-Apr-16 04:30N 34°36' E 135°03'4 8.1
2018-Apr-16 04:00N 34°33' E 135°05'  

Dump ship's entire track history